Cincinnati, Ohio
Traffic Map
Current Weather Conditions
Cincinnati, Ohio
Clear
Clear
16°
Feels Like: 16°
Wind Chill: 16° Ceiling: Unl
Heat Index: 16° Visibility: 10mi
Dew Point: 16° Wind: 0mph
Humidity: 97% Direction: ° ()
Pressure: 30.22in Gusts: 0mph
Raw Report DataKLUK 241153Z 00000KT 10SM CLR 16/16 A3022 RMK AO2 SLP232 T01610156 10161 20128 53014
Traffic Incident Summary
Active as of:
Severity:
Category:
InformationThere was an issue retrieving the traffic information for this location. Please try a different location or try again shortly.
Advertisements